Aérodrome :
LOGIN :

S'inscrire | Disclaimer

   EN    FR    IT 

 










Légende :    VFR   VFR Marginal   IFR   IFR Intensif   IFR Très Intensif
Visi : 
Plafond : 
>= 8 km
>= 3000ft
5 à 8 km
1000 à 3000 ft
1500m à 5 km
500 à 1000 ft
800 à 1500m
200 à 500 ft
< 800m
< 200 ft
Symboles :   Orages  Brouillard  Fortes neiges  Fortes précipitations  Vent > 20 kt
SIGMETs :   Divers  Orages  Givrage  Turbulence  Onde Orograph.  Cendres Volcan.






- Altitude de l'aérodrome : 604 ft
- Code IATA : LCJ


EPLL - Lodz

DERNIER METAR :
  • 272000Z 13002KT 8000 NSC 00/M01 Q1000

METARs EXPIRÉS :
  • 271930Z VRB01KT 9000 NSC 01/M00 Q1000
  • 271900Z VRB01KT 9000 NSC 01/M00 Q1000
  • 271830Z VRB01KT CAVOK 00/M01 Q1000
  • 271800Z VRB02KT CAVOK 01/M01 Q1000

TAF TAF EPLL
Valide du 27 à 18h jusqu'au 28 à 18h UTC


271730Z 2718/2818 21004KT 9999 SCT040
PROB40 2802/2808 3000 BR BKN007
TEMPO 2808/2818 2000 SHSN BKN004 BKN009CB
BECMG 2810/2812 28012KT



MET'MAP, la Météo Aéronautique d'un coup d'oeil ! - Copyright ORBIFLY Décembre 2007 - Disclaimer

ORBIFLY MET'MAP TEAM :

Programmation & Développement : Alexandra Zaïnal
Sur une idée originale de : Baudouin d'Aumeries
Assistance à la programmation : Marc-Olivier Méhu
Soutien technique & logistique : Manuel Goepfert

Contact : metmap@orbifly.com




SOURCES & CREDITS :

   NOAA